Terminal Aerodrome Forecast
Issued by NWS

Current Version | Previous Version | Text Only | Print | Product List | Glossary On
Versions: 1 2 3 4 5 6 7 8 9 10 11 12 13 14 15 16 17 18 19 20 21 22 23 24 25
000
FTUS42 KGSP 261834 AAA
TAFAND
TAF AMD
KAND 261834Z 2619/2718 24008KT P6SM SCT030
     FM270500 22006KT P6SM BKN050
     FM271400 27012KT P6SM SCT060=

USA.gov is the U.S. government's official web portal to all federal, state and local government web resources and services.